Time;durP1;ratioP1;P1;durP2;ratioP2;P2;SDS_P1;SDS_P2;PMS_P1;PMS_P2;Temp;Humidity;BMP_temperature;BMP_pressure;BME280_temperature;BME280_humidity;BME280_pressure;Samples;Min_cycle;Max_cycle;Signal;HPM_P1;HPM_P2
2022/12/07 00:01:46;;;;;;;11.65;9.13;;;4.20;99.90;;;;;;4978995;28;20389;-83
2022/12/07 00:04:27;;;;;;;11.57;9.70;;;3.30;99.90;;;;;;4994720;28;20195;-85
2022/12/07 00:06:55;;;;;;;9.85;8.52;;;3.30;99.90;;;;;;4996809;28;20230;-86
2022/12/07 00:09:23;;;;;;;10.93;8.23;;;3.40;99.90;;;;;;4995038;28;20206;-83
2022/12/07 00:11:53;;;;;;;10.60;8.27;;;3.40;99.90;;;;;;4986645;28;20267;-83
2022/12/07 00:14:23;;;;;;;8.57;7.22;;;3.40;99.90;;;;;;4981396;28;20198;-87
2022/12/07 00:16:51;;;;;;;9.02;6.70;;;3.40;99.90;;;;;;4986300;28;20226;-86
2022/12/07 00:19:25;;;;;;;8.55;7.30;;;3.40;99.90;;;;;;4995963;28;20430;-85
2022/12/07 00:21:56;;;;;;;7.60;6.80;;;3.30;99.90;;;;;;4990934;28;20558;-85
2022/12/07 00:24:50;;;;;;;7.80;6.28;;;3.30;99.90;;;;;;4974855;28;20218;-86
2022/12/07 00:27:19;;;;;;;12.32;6.70;;;3.40;99.90;;;;;;4998253;28;20206;-85
2022/12/07 00:29:50;;;;;;;7.82;6.03;;;3.30;99.90;;;;;;4983098;28;20538;-85
2022/12/07 00:32:24;;;;;;;6.18;5.57;;;3.30;99.90;;;;;;4988839;28;20199;-89
2022/12/07 00:35:14;;;;;;;8.93;6.85;;;3.30;99.90;;;;;;4993366;28;20209;-86
2022/12/07 00:37:51;;;;;;;7.90;5.93;;;3.20;99.90;;;;;;4989909;28;20199;-85
2022/12/07 00:40:28;;;;;;;5.97;4.65;;;3.10;99.90;;;;;;5005770;28;20262;-83
2022/12/07 00:43:01;;;;;;;8.40;5.85;;;3.30;99.90;;;;;;4983388;28;20281;-83
2022/12/07 00:45:28;;;;;;;7.07;6.32;;;3.20;99.90;;;;;;4991654;28;20217;-85
2022/12/07 00:47:56;;;;;;;6.72;5.32;;;3.20;99.90;;;;;;5003358;28;20233;-85
2022/12/07 00:50:23;;;;;;;5.80;4.97;;;3.10;99.90;;;;;;4999099;28;20266;-82
2022/12/07 00:52:50;;;;;;;4.70;4.10;;;3.20;99.90;;;;;;4990909;28;20252;-84
2022/12/07 00:55:17;;;;;;;6.65;4.38;;;3.20;99.90;;;;;;4997691;28;20211;-85
2022/12/07 00:57:44;;;;;;;6.35;5.30;;;3.10;99.90;;;;;;4992981;28;20199;-83
2022/12/07 01:00:12;;;;;;;6.38;4.97;;;3.20;99.90;;;;;;4994875;28;20207;-83
2022/12/07 01:02:39;;;;;;;4.97;3.83;;;3.20;99.90;;;;;;4996515;28;20223;-85
2022/12/07 01:05:06;;;;;;;6.18;3.47;;;3.20;99.90;;;;;;4987066;28;20438;-87
2022/12/07 01:07:33;;;;;;;4.72;3.90;;;3.20;99.90;;;;;;5002278;28;20214;-85
2022/12/07 01:10:01;;;;;;;3.92;3.53;;;3.10;99.90;;;;;;4993907;28;20210;-83
2022/12/07 01:12:28;;;;;;;4.43;4.03;;;3.10;99.90;;;;;;4987076;28;20203;-85
2022/12/07 01:14:55;;;;;;;4.28;3.88;;;3.20;99.90;;;;;;4994292;28;20198;-84
2022/12/07 01:17:22;;;;;;;5.80;4.10;;;3.30;99.90;;;;;;4987216;28;20266;-87
2022/12/07 01:19:49;;;;;;;3.65;3.35;;;3.20;99.90;;;;;;4981311;28;20249;-84
2022/12/07 01:22:16;;;;;;;4.60;4.20;;;3.30;99.90;;;;;;4987943;28;20437;-84
2022/12/07 01:24:43;;;;;;;5.47;4.30;;;3.10;99.90;;;;;;4995915;28;20210;-84
2022/12/07 01:27:10;;;;;;;19.90;5.40;;;3.10;99.90;;;;;;4996959;28;20213;-85
2022/12/07 01:29:38;;;;;;;5.28;4.28;;;3.20;99.90;;;;;;4993121;28;20210;-84
2022/12/07 01:32:05;;;;;;;4.40;4.00;;;3.20;99.90;;;;;;4991366;28;20241;-84
2022/12/07 01:34:32;;;;;;;3.80;3.40;;;3.20;99.90;;;;;;4988383;28;20214;-85
2022/12/07 01:36:59;;;;;;;4.70;3.42;;;3.20;99.90;;;;;;4991592;28;20198;-85
2022/12/07 01:39:26;;;;;;;3.95;3.65;;;3.20;99.90;;;;;;4995378;28;20253;-89
2022/12/07 01:41:53;;;;;;;5.90;4.05;;;3.20;99.90;;;;;;5004563;28;20227;-86
2022/12/07 01:44:32;;;;;;;3.60;3.30;;;3.20;99.90;;;;;;4982402;28;20499;-85
2022/12/07 01:47:04;;;;;;;3.40;3.10;;;3.20;99.90;;;;;;5003417;28;20257;-85
2022/12/07 01:49:52;;;;;;;4.47;3.63;;;3.20;99.90;;;;;;4993516;28;20230;-85
2022/12/07 01:52:30;;;;;;;4.50;4.10;;;3.10;99.90;;;;;;4991016;28;20199;-85
2022/12/07 01:55:01;;;;;;;3.95;2.85;;;3.20;99.90;;;;;;4996365;28;20218;-85
2022/12/07 01:57:30;;;;;;;5.18;3.13;;;3.30;99.90;;;;;;4998697;28;20208;-83
2022/12/07 01:59:59;;;;;;;5.60;4.25;;;3.10;99.90;;;;;;4992792;28;20195;-83
2022/12/07 02:02:42;;;;;;;3.83;3.35;;;3.20;99.90;;;;;;4983685;28;20226;-86
2022/12/07 02:05:11;;;;;;;3.08;2.75;;;3.10;99.90;;;;;;4988798;28;20197;-85
2022/12/07 02:07:38;;;;;;;3.40;3.10;;;3.20;99.90;;;;;;5000047;28;20245;-85
2022/12/07 02:10:18;;;;;;;4.55;3.33;;;3.10;99.90;;;;;;4986800;28;20203;-84
2022/12/07 02:12:49;;;;;;;2.70;2.47;;;3.10;99.90;;;;;;4992463;28;20222;-84
2022/12/07 02:15:16;;;;;;;3.35;2.83;;;3.10;99.90;;;;;;4986842;28;20230;-84
2022/12/07 02:17:46;;;;;;;2.60;2.40;;;3.20;99.90;;;;;;4994947;28;20233;-84
2022/12/07 02:20:43;;;;;;;2.42;2.08;;;3.10;99.90;;;;;;4979922;28;20253;-84
2022/12/07 02:23:10;;;;;;;3.03;2.05;;;3.10;99.90;;;;;;4983887;28;20227;-84
2022/12/07 02:26:14;;;;;;;5.47;2.47;;;3.10;99.90;;;;;;4993397;28;20207;-84
2022/12/07 02:29:00;;;;;;;3.47;2.97;;;3.00;99.90;;;;;;4978396;28;20202;-84
2022/12/07 02:31:30;;;;;;;3.78;2.40;;;3.30;99.90;;;;;;5000503;28;20210;-83
2022/12/07 02:34:21;;;;;;;2.92;2.42;;;3.00;99.90;;;;;;4986273;28;20187;-85
2022/12/07 02:36:56;;;;;;;2.85;2.65;;;2.90;99.90;;;;;;4980714;28;20491;-87
2022/12/07 02:39:33;;;;;;;3.15;2.60;;;2.90;99.90;;;;;;4989396;28;20249;-87
2022/12/07 02:42:18;;;;;;;2.88;2.58;;;2.90;99.90;;;;;;4991046;28;20214;-84
2022/12/07 02:44:47;;;;;;;2.38;2.17;;;2.90;99.90;;;;;;4986393;28;20202;-83
2022/12/07 02:47:17;;;;;;;4.20;3.08;;;2.90;99.90;;;;;;4991749;28;20210;-83
2022/12/07 02:49:45;;;;;;;2.60;2.40;;;2.90;99.90;;;;;;4993394;28;20248;-83
2022/12/07 02:52:12;;;;;;;2.88;2.30;;;2.90;99.90;;;;;;4988753;28;20210;-84
2022/12/07 02:54:40;;;;;;;2.72;2.53;;;3.00;99.90;;;;;;4994169;28;20210;-83
2022/12/07 02:57:12;;;;;;;2.78;2.55;;;3.20;99.90;;;;;;4993029;28;20214;-84
2022/12/07 02:59:55;;;;;;;2.67;2.35;;;2.80;99.90;;;;;;4989710;28;20495;-84
2022/12/07 03:02:29;;;;;;;2.70;2.50;;;3.20;99.90;;;;;;4973556;28;20273;-84
2022/12/07 03:05:13;;;;;;;3.28;2.97;;;2.70;99.90;;;;;;4984922;28;20577;-90
2022/12/07 03:07:48;;;;;;;3.00;2.70;;;2.80;99.90;;;;;;4985813;28;20207;-85
2022/12/07 03:10:28;;;;;;;3.55;3.25;;;2.70;99.90;;;;;;4988454;28;20229;-88
2022/12/07 03:13:18;;;;;;;3.30;3.00;;;2.80;99.90;;;;;;4981684;28;20498;-80
2022/12/07 03:15:52;;;;;;;3.30;2.92;;;2.90;99.90;;;;;;4983803;28;20202;-81
2022/12/07 03:18:22;;;;;;;3.75;3.17;;;2.80;99.90;;;;;;4983727;28;20246;-81
2022/12/07 03:20:55;;;;;;;2.40;2.20;;;2.80;99.90;;;;;;4978777;28;20510;-82
2022/12/07 03:23:25;;;;;;;3.92;3.58;;;2.80;99.90;;;;;;4982710;28;20230;-81
2022/12/07 03:25:57;;;;;;;4.13;3.33;;;2.80;99.90;;;;;;4975144;28;20226;-82
2022/12/07 03:28:32;;;;;;;3.80;3.50;;;2.80;99.90;;;;;;4990859;28;20247;-82
2022/12/07 03:31:22;;;;;;;4.32;3.90;;;2.80;99.90;;;;;;4998977;28;20199;-84
2022/12/07 03:34:06;;;;;;;4.00;3.60;;;2.80;99.90;;;;;;4986769;28;20206;-84
2022/12/07 03:36:44;;;;;;;4.15;3.75;;;2.80;99.90;;;;;;4995790;28;20202;-85
2022/12/07 03:39:40;;;;;;;3.53;3.20;;;2.60;99.90;;;;;;4983418;28;20269;-84
2022/12/07 03:42:10;;;;;;;4.63;4.00;;;2.70;99.90;;;;;;4985269;28;20615;-82
2022/12/07 03:44:38;;;;;;;3.47;3.28;;;2.80;99.90;;;;;;4986340;28;20218;-86
2022/12/07 03:47:23;;;;;;;5.57;3.92;;;2.70;99.90;;;;;;4993630;28;20238;-83
2022/12/07 03:50:13;;;;;;;3.80;3.30;;;2.90;99.90;;;;;;4970285;28;20234;-84
2022/12/07 03:52:52;;;;;;;5.05;4.03;;;3.00;99.90;;;;;;4989608;28;20210;-83
2022/12/07 03:55:29;;;;;;;3.67;3.38;;;3.00;99.90;;;;;;5001880;28;20214;-85
2022/12/07 03:58:02;;;;;;;3.30;3.00;;;3.00;99.90;;;;;;5001966;28;20178;-84
2022/12/07 04:00:29;;;;;;;3.85;3.45;;;3.10;99.90;;;;;;4995590;28;20231;-84
2022/12/07 04:02:56;;;;;;;5.13;4.20;;;3.20;99.90;;;;;;4997328;28;20234;-83
2022/12/07 04:05:24;;;;;;;4.22;3.78;;;3.10;99.90;;;;;;4997482;28;20234;-83
2022/12/07 04:07:51;;;;;;;4.60;3.75;;;3.00;99.90;;;;;;4989459;28;20215;-82
2022/12/07 04:10:18;;;;;;;4.57;3.70;;;3.00;99.90;;;;;;4986276;28;20283;-84
2022/12/07 04:12:45;;;;;;;2.38;2.17;;;3.00;99.90;;;;;;4979493;28;20230;-82
2022/12/07 04:15:17;;;;;;;3.15;2.70;;;3.00;99.90;;;;;;4972977;28;20269;-81
2022/12/07 04:17:46;;;;;;;3.60;3.30;;;3.10;99.90;;;;;;4989238;28;20207;-81
2022/12/07 04:20:14;;;;;;;3.20;2.90;;;3.20;99.90;;;;;;4992921;28;20210;-82
2022/12/07 04:22:42;;;;;;;3.30;2.75;;;3.10;99.90;;;;;;4997100;28;20620;-81
2022/12/07 04:25:13;;;;;;;3.75;3.08;;;3.10;99.90;;;;;;4990559;28;20451;-83
2022/12/07 04:27:41;;;;;;;3.00;2.80;;;2.90;99.90;;;;;;4986739;28;20207;-81
2022/12/07 04:30:08;;;;;;;3.55;2.80;;;3.00;99.90;;;;;;4989006;28;20262;-82
2022/12/07 04:32:36;;;;;;;3.08;2.88;;;2.90;99.90;;;;;;4992688;28;20398;-81
2022/12/07 04:35:03;;;;;;;6.75;3.35;;;2.90;99.90;;;;;;4982739;28;20215;-83
2022/12/07 04:37:35;;;;;;;3.22;2.90;;;2.90;99.90;;;;;;4987134;28;20216;-82
2022/12/07 04:40:02;;;;;;;3.58;3.28;;;2.90;99.90;;;;;;4981903;28;20250;-83
2022/12/07 04:42:31;;;;;;;3.28;2.97;;;2.90;99.90;;;;;;4991933;28;20239;-84
2022/12/07 04:44:58;;;;;;;3.20;2.90;;;2.90;99.90;;;;;;4988599;28;20278;-83
2022/12/07 04:47:26;;;;;;;3.40;3.08;;;2.90;99.90;;;;;;4986993;28;20233;-85
2022/12/07 04:49:53;;;;;;;4.60;4.20;;;3.00;99.90;;;;;;4974776;28;20216;-84
2022/12/07 04:52:21;;;;;;;3.58;3.08;;;3.20;99.90;;;;;;4990029;28;20224;-84
2022/12/07 04:54:53;;;;;;;2.80;2.60;;;2.90;99.90;;;;;;4982901;28;20206;-84
2022/12/07 04:57:25;;;;;;;3.50;3.20;;;3.00;99.90;;;;;;4984216;28;20214;-85
2022/12/07 05:00:10;;;;;;;5.85;5.25;;;3.00;99.90;;;;;;4994083;28;20203;-84
2022/12/07 05:02:40;;;;;;;4.55;4.07;;;3.00;99.90;;;;;;4980533;28;20235;-84
2022/12/07 05:05:07;;;;;;;5.35;4.75;;;3.30;99.90;;;;;;4977299;28;20206;-85
2022/12/07 05:07:35;;;;;;;5.97;4.30;;;2.90;99.90;;;;;;4980889;28;20286;-83
2022/12/07 05:10:06;;;;;;;4.53;4.13;;;3.10;99.90;;;;;;4975916;28;20283;-83
2022/12/07 05:12:33;;;;;;;6.40;4.07;;;3.10;99.90;;;;;;4984051;28;20274;-83
2022/12/07 05:15:00;;;;;;;4.60;4.15;;;3.00;99.90;;;;;;4980881;28;20581;-82
2022/12/07 05:17:28;;;;;;;6.13;4.75;;;3.10;99.90;;;;;;4979053;28;20273;-83
2022/12/07 05:19:55;;;;;;;6.78;5.10;;;3.10;99.90;;;;;;4990963;28;20214;-83
2022/12/07 05:22:21;;;;;;;5.90;4.70;;;3.20;99.90;;;;;;4994407;28;20202;-84
2022/12/07 05:24:51;;;;;;;7.47;5.45;;;3.20;99.90;;;;;;4972909;28;20207;-82
2022/12/07 05:27:18;;;;;;;9.52;4.57;;;3.20;99.90;;;;;;4980670;28;20273;-81
2022/12/07 05:29:45;;;;;;;8.07;5.93;;;3.20;99.90;;;;;;4987209;28;20224;-83
2022/12/07 05:32:12;;;;;;;7.93;6.05;;;3.20;99.90;;;;;;4979170;28;20215;-83
2022/12/07 05:34:38;;;;;;;9.25;6.43;;;3.20;99.90;;;;;;4980091;28;20215;-82
2022/12/07 05:37:05;;;;;;;7.60;5.90;;;3.40;99.90;;;;;;4987051;28;20234;-83
2022/12/07 05:39:32;;;;;;;7.97;5.95;;;3.20;99.90;;;;;;4983200;28;20246;-84
2022/12/07 05:42:14;;;;;;;9.02;8.02;;;3.30;99.90;;;;;;4981293;28;20266;-83
2022/12/07 05:44:44;;;;;;;11.25;8.57;;;3.10;99.90;;;;;;4978856;28;20223;-83
2022/12/07 05:47:13;;;;;;;12.32;7.75;;;3.30;99.90;;;;;;4989483;28;20257;-83
2022/12/07 05:49:40;;;;;;;12.38;7.35;;;3.10;99.90;;;;;;4975325;28;20527;-85
2022/12/07 05:52:07;;;;;;;10.85;8.57;;;2.90;99.90;;;;;;4980256;28;20203;-82
2022/12/07 05:54:35;;;;;;;13.52;9.15;;;3.10;99.90;;;;;;4982571;28;20454;-83
2022/12/07 05:57:03;;;;;;;23.42;11.60;;;3.10;99.90;;;;;;4968984;28;20204;-88
2022/12/07 05:59:30;;;;;;;14.23;10.52;;;3.20;99.90;;;;;;4984010;28;20235;-83
2022/12/07 06:02:02;;;;;;;15.70;10.63;;;3.10;99.90;;;;;;4982211;28;20254;-84
2022/12/07 06:04:33;;;;;;;13.82;9.80;;;3.00;99.90;;;;;;4991123;28;20526;-83
2022/12/07 06:07:00;;;;;;;11.57;10.02;;;3.10;99.90;;;;;;4983746;28;20379;-82
2022/12/07 06:09:29;;;;;;;14.90;10.27;;;3.10;99.90;;;;;;4979633;28;20231;-84
2022/12/07 06:14:45;;;;;;;15.02;11.85;;;3.00;99.90;;;;;;4988936;28;20215;-82
2022/12/07 06:17:12;;;;;;;16.98;11.10;;;3.00;99.90;;;;;;4989124;28;20257;-82
2022/12/07 06:19:40;;;;;;;21.13;12.30;;;3.00;99.90;;;;;;4994888;28;20195;-85
2022/12/07 06:22:11;;;;;;;17.55;12.10;;;2.90;99.90;;;;;;4993486;28;20258;-84
2022/12/07 06:24:52;;;;;;;19.23;15.02;;;3.20;99.90;;;;;;4988841;28;20823;-82
2022/12/07 06:27:20;;;;;;;17.88;12.23;;;3.10;99.90;;;;;;4998014;28;20265;-85
2022/12/07 06:29:49;;;;;;;20.02;13.82;;;3.10;99.90;;;;;;4970341;28;20226;-83
2022/12/07 06:32:16;;;;;;;18.15;12.57;;;3.10;99.90;;;;;;4984499;28;20587;-83
2022/12/07 06:34:44;;;;;;;19.05;12.15;;;3.10;99.90;;;;;;4986278;28;20261;-84
2022/12/07 06:37:16;;;;;;;21.60;14.43;;;3.10;99.90;;;;;;4988879;28;20206;-82
2022/12/07 06:39:48;;;;;;;18.38;10.95;;;3.10;99.90;;;;;;4988991;28;20214;-83
2022/12/07 06:42:16;;;;;;;12.73;9.90;;;3.50;99.90;;;;;;4995402;28;20202;-83
2022/12/07 06:44:43;;;;;;;14.77;10.75;;;3.10;99.90;;;;;;4993120;28;20225;-86
2022/12/07 06:47:11;;;;;;;19.52;12.77;;;3.60;99.90;;;;;;4994049;28;20207;-84
2022/12/07 06:49:58;;;;;;;19.27;13.25;;;3.20;99.90;;;;;;4983535;28;20426;-85
2022/12/07 06:52:25;;;;;;;17.60;12.70;;;3.20;99.90;;;;;;4984583;28;20211;-84
2022/12/07 06:54:52;;;;;;;16.15;10.32;;;3.40;99.90;;;;;;4989947;28;20207;-84
2022/12/07 06:57:20;;;;;;;15.18;11.10;;;3.50;99.90;;;;;;4984082;28;20429;-82
2022/12/07 06:59:47;;;;;;;16.52;11.77;;;3.40;99.90;;;;;;4987693;28;20410;-86
2022/12/07 07:02:14;;;;;;;17.67;12.77;;;3.30;99.90;;;;;;4994552;28;20242;-83
2022/12/07 07:04:40;;;;;;;17.58;11.88;;;3.30;99.90;;;;;;4985135;28;20230;-87
2022/12/07 07:07:07;;;;;;;20.10;14.85;;;3.40;99.90;;;;;;4989376;28;20236;-84
2022/12/07 07:09:37;;;;;;;22.48;13.10;;;3.30;99.90;;;;;;4989098;28;20535;-85
2022/12/07 07:12:04;;;;;;;18.08;11.98;;;3.20;99.90;;;;;;4986203;28;20207;-84
2022/12/07 07:14:31;;;;;;;22.45;12.95;;;3.20;99.90;;;;;;4989334;28;20210;-86
2022/12/07 07:16:57;;;;;;;13.90;10.15;;;3.20;99.90;;;;;;4994064;28;20226;-84
2022/12/07 07:19:25;;;;;;;18.52;12.50;;;3.20;99.90;;;;;;4989828;28;20652;-83
2022/12/07 07:21:52;;;;;;;17.67;12.07;;;3.20;99.90;;;;;;4990378;28;20218;-85
2022/12/07 07:24:18;;;;;;;15.52;10.00;;;3.20;99.90;;;;;;4984915;28;20258;-85
2022/12/07 07:26:45;;;;;;;15.00;11.30;;;3.20;99.90;;;;;;4982314;28;20299;-84
2022/12/07 07:29:13;;;;;;;18.90;12.27;;;3.20;99.90;;;;;;4989426;28;20277;-90
2022/12/07 07:31:47;;;;;;;18.55;13.05;;;3.20;99.90;;;;;;4997346;28;20249;-85
2022/12/07 07:34:13;;;;;;;16.60;12.10;;;3.00;99.90;;;;;;4990469;28;20214;-84
2022/12/07 07:36:40;;;;;;;18.10;12.13;;;3.10;99.90;;;;;;4988926;28;20215;-84
2022/12/07 07:39:07;;;;;;;16.27;11.77;;;3.10;99.90;;;;;;4985321;28;20214;-83
2022/12/07 07:41:34;;;;;;;16.40;11.73;;;3.30;99.90;;;;;;4979656;28;20210;-83
2022/12/07 07:44:03;;;;;;;17.98;12.20;;;3.60;99.90;;;;;;4985079;28;20251;-83
2022/12/07 07:46:33;;;;;;;20.50;13.07;;;4.00;99.90;;;;;;4974746;28;20207;-82
2022/12/07 07:49:00;;;;;;;16.48;11.52;;;4.10;99.90;;;;;;4989294;28;20217;-82
2022/12/07 07:51:27;;;;;;;17.02;10.98;;;4.40;99.90;;;;;;4982660;28;20452;-85
2022/12/07 07:53:56;;;;;;;15.43;11.55;;;4.60;99.90;;;;;;4987248;28;20226;-83
2022/12/07 07:56:26;;;;;;;16.45;10.85;;;4.30;99.90;;;;;;4980034;28;20210;-84
2022/12/07 07:58:54;;;;;;;13.80;10.40;;;4.20;99.90;;;;;;5001168;28;20211;-84
2022/12/07 08:01:22;;;;;;;14.25;10.02;;;4.20;99.90;;;;;;4980329;28;20227;-83
2022/12/07 08:03:50;;;;;;;14.45;10.63;;;4.10;99.90;;;;;;4991994;28;20246;-84
2022/12/07 08:06:17;;;;;;;15.05;9.52;;;4.10;99.90;;;;;;4995374;28;20338;-84
2022/12/07 08:08:44;;;;;;;16.33;11.02;;;4.00;99.90;;;;;;4988490;28;20537;-83
2022/12/07 08:11:12;;;;;;;15.90;10.80;;;4.20;99.90;;;;;;4987901;28;20515;-84
2022/12/07 08:13:39;;;;;;;14.90;11.07;;;3.80;99.90;;;;;;4983262;28;20257;-84
2022/12/07 08:16:11;;;;;;;16.52;10.82;;;3.50;99.90;;;;;;4993450;28;20244;-83
2022/12/07 08:18:39;;;;;;;12.18;10.45;;;3.50;99.90;;;;;;4993900;28;20194;-84
2022/12/07 08:21:09;;;;;;;13.10;9.45;;;3.70;99.90;;;;;;4985734;28;20423;-84
2022/12/07 08:23:40;;;;;;;15.43;10.40;;;3.70;99.90;;;;;;4993571;28;20227;-84
2022/12/07 08:26:12;;;;;;;15.73;10.70;;;3.80;99.90;;;;;;4975172;28;20227;-83
2022/12/07 08:28:40;;;;;;;21.10;11.43;;;4.00;99.90;;;;;;4982431;28;20219;-84
2022/12/07 08:31:11;;;;;;;17.45;10.77;;;4.00;99.90;;;;;;4995355;28;20673;-84
2022/12/07 08:33:38;;;;;;;13.07;9.27;;;4.20;99.90;;;;;;4994187;28;20214;-84
2022/12/07 08:36:10;;;;;;;19.23;10.40;;;4.20;99.90;;;;;;4972956;28;20281;-83
2022/12/07 08:38:40;;;;;;;14.93;10.38;;;4.10;99.90;;;;;;4992535;28;20265;-83
2022/12/07 08:41:23;;;;;;;18.23;10.85;;;4.50;99.90;;;;;;4992255;28;20245;-83
2022/12/07 08:43:53;;;;;;;12.10;9.52;;;4.20;99.90;;;;;;4974653;28;20562;-84
2022/12/07 08:46:36;;;;;;;13.25;9.75;;;4.20;99.90;;;;;;4993465;28;20497;-83
2022/12/07 08:49:14;;;;;;;13.40;9.63;;;4.40;99.90;;;;;;4986194;28;20290;-84
2022/12/07 08:51:42;;;;;;;13.30;8.93;;;4.50;99.90;;;;;;4979834;28;20201;-84
2022/12/07 08:54:16;;;;;;;13.15;10.18;;;4.50;99.90;;;;;;5000187;28;20281;-83
2022/12/07 08:56:45;;;;;;;13.50;9.73;;;4.50;99.90;;;;;;4981961;28;20545;-83
2022/12/07 08:59:14;;;;;;;13.98;10.27;;;4.70;99.90;;;;;;4996996;28;20270;-82
2022/12/07 09:01:42;;;;;;;14.52;10.15;;;4.80;99.90;;;;;;4989872;28;20602;-83
2022/12/07 09:04:11;;;;;;;12.63;8.85;;;5.00;99.90;;;;;;4983275;28;20233;-84
2022/12/07 09:06:39;;;;;;;18.52;10.40;;;5.10;99.90;;;;;;4987690;28;20235;-83
2022/12/07 09:09:07;;;;;;;15.30;9.60;;;5.20;99.90;;;;;;4977878;28;20278;-84
2022/12/07 09:11:35;;;;;;;14.45;10.30;;;6.30;99.90;;;;;;4974819;28;20270;-83
2022/12/07 09:14:03;;;;;;;14.05;10.60;;;6.60;99.90;;;;;;4985034;28;20206;-82
2022/12/07 09:16:36;;;;;;;14.75;9.57;;;5.50;99.90;;;;;;4965983;29;20519;-85
2022/12/07 09:19:03;;;;;;;14.48;9.02;;;5.80;99.90;;;;;;4980393;28;20275;-84
2022/12/07 09:21:33;;;;;;;10.23;7.65;;;5.70;99.90;;;;;;4972913;28;20238;-84
2022/12/07 09:24:03;;;;;;;6.95;6.25;;;5.90;99.90;;;;;;4987208;28;20230;-84
2022/12/07 09:26:32;;;;;;;11.57;8.57;;;5.90;99.90;;;;;;4986658;28;20511;-83
2022/12/07 09:29:06;;;;;;;7.47;6.30;;;6.10;99.90;;;;;;4984632;28;20210;-82
2022/12/07 09:31:38;;;;;;;7.57;6.32;;;6.20;99.90;;;;;;4987074;28;20231;-83
2022/12/07 09:34:07;;;;;;;8.25;6.35;;;6.30;99.90;;;;;;4978165;28;20210;-83
2022/12/07 09:36:37;;;;;;;8.43;6.40;;;6.30;99.90;;;;;;4987278;28;20199;-83
2022/12/07 09:39:05;;;;;;;8.73;6.80;;;6.40;99.90;;;;;;4982192;28;20226;-84
2022/12/07 09:41:32;;;;;;;12.85;8.82;;;6.70;99.90;;;;;;4994659;28;20199;-84
2022/12/07 09:44:27;;;;;;;9.93;8.13;;;6.70;99.90;;;;;;4996103;28;20238;-83
2022/12/07 09:46:56;;;;;;;8.25;6.70;;;6.70;99.90;;;;;;4967839;28;20533;-83
2022/12/07 09:49:26;;;;;;;8.98;5.57;;;6.40;99.90;;;;;;4990555;28;20214;-83
2022/12/07 09:52:18;;;;;;;6.70;5.18;;;7.00;99.90;;;;;;4996347;28;20191;-84
2022/12/07 09:54:48;;;;;;;8.48;5.10;;;6.50;99.90;;;;;;4989311;28;20207;-84
2022/12/07 09:57:17;;;;;;;5.50;4.10;;;6.40;99.90;;;;;;4973977;28;20263;-82
2022/12/07 09:59:44;;;;;;;5.32;4.20;;;6.80;99.90;;;;;;4978619;28;20265;-84
2022/12/07 10:02:38;;;;;;;9.18;5.70;;;6.30;99.90;;;;;;4982767;28;20195;-85
2022/12/07 10:05:13;;;;;;;7.90;6.07;;;6.30;99.90;;;;;;5005894;28;20230;-85
2022/12/07 10:07:47;;;;;;;7.60;5.10;;;6.40;99.90;;;;;;4991602;28;20199;-85
2022/12/07 10:10:26;;;;;;;9.07;5.28;;;6.70;99.90;;;;;;4996814;28;20210;-83
2022/12/07 10:13:03;;;;;;;4.75;4.20;;;6.90;99.90;;;;;;4987801;28;20226;-81
2022/12/07 10:15:46;;;;;;;6.03;4.93;;;7.00;99.90;;;;;;5010266;28;20213;-86
2022/12/07 10:18:30;;;;;;;7.50;4.40;;;7.00;99.90;;;;;;4996552;28;20207;-84
2022/12/07 10:21:08;;;;;;;9.20;4.97;;;7.00;99.90;;;;;;4992031;28;20199;-83
2022/12/07 10:23:58;;;;;;;8.32;4.85;;;7.00;99.90;;;;;;4983719;28;20206;-85
2022/12/07 10:27:00;;;;;;;7.70;5.35;;;7.50;99.90;;;;;;4986629;28;20207;-83
2022/12/07 10:29:35;;;;;;;6.07;4.80;;;6.70;99.90;;;;;;4984784;28;20270;-84
2022/12/07 10:32:33;;;;;;;9.55;6.25;;;6.60;99.90;;;;;;4994574;28;20225;-84
2022/12/07 10:35:23;;;;;;;8.63;5.75;;;6.30;99.90;;;;;;4988379;28;20194;-83
2022/12/07 10:37:53;;;;;;;10.20;6.70;;;6.20;99.90;;;;;;4994763;28;20196;-85
2022/12/07 10:40:35;;;;;;;6.35;5.05;;;6.40;99.90;;;;;;4991548;28;20201;-85
2022/12/07 10:43:12;;;;;;;4.32;3.70;;;5.80;99.90;;;;;;4991233;28;20214;-86
2022/12/07 10:46:07;;;;;;;4.72;3.53;;;6.40;99.90;;;;;;5000873;28;20225;-83
2022/12/07 10:49:27;;;;;;;6.18;4.35;;;5.70;99.90;;;;;;4993291;28;20210;-83
2022/12/07 10:52:26;;;;;;;7.72;5.25;;;5.90;99.90;;;;;;4993349;28;20499;-84
2022/12/07 10:55:14;;;;;;;5.57;3.47;;;5.70;99.90;;;;;;4987129;28;20206;-85
2022/12/07 10:58:06;;;;;;;3.83;3.53;;;5.50;99.90;;;;;;4982053;28;20199;-83
2022/12/07 11:01:11;;;;;;;3.20;2.90;;;5.40;99.90;;;;;;4996573;28;20506;-84
2022/12/07 11:04:14;;;;;;;4.57;3.13;;;5.10;99.90;;;;;;4954583;28;20215;-84
2022/12/07 11:07:01;;;;;;;3.35;3.05;;;4.90;99.90;;;;;;4967763;28;20219;-89
2022/12/07 11:09:45;;;;;;;5.05;3.03;;;4.90;99.90;;;;;;4972349;28;20459;-84
2022/12/07 11:12:41;;;;;;;4.82;4.18;;;4.80;99.90;;;;;;4983550;28;20285;-83
2022/12/07 11:15:30;;;;;;;8.98;4.38;;;5.10;99.90;;;;;;4982800;28;20222;-85
2022/12/07 11:18:05;;;;;;;4.65;3.95;;;4.70;99.90;;;;;;4978477;28;20294;-83
2022/12/07 11:20:47;;;;;;;3.70;3.40;;;4.80;99.90;;;;;;4981363;28;20475;-85
2022/12/07 11:23:47;;;;;;;6.60;4.93;;;4.80;99.90;;;;;;4976153;28;20215;-85
2022/12/07 11:26:34;;;;;;;4.10;3.70;;;4.90;99.90;;;;;;4975282;28;20448;-83
2022/12/07 11:29:07;;;;;;;4.68;4.28;;;5.00;99.90;;;;;;4995064;28;20386;-84
2022/12/07 11:32:00;;;;;;;4.10;3.70;;;5.10;99.90;;;;;;4990898;28;20253;-85
2022/12/07 11:34:55;;;;;;;4.00;3.47;;;5.20;99.90;;;;;;4979726;28;20507;-83
2022/12/07 11:37:37;;;;;;;3.28;2.97;;;5.10;99.90;;;;;;4982914;28;20207;-83
2022/12/07 11:40:36;;;;;;;4.10;3.70;;;5.00;99.90;;;;;;4982045;28;20257;-88
2022/12/07 11:43:20;;;;;;;7.75;3.85;;;5.00;99.90;;;;;;4981491;28;20210;-89
2022/12/07 11:46:14;;;;;;;5.45;4.20;;;4.90;99.90;;;;;;4982878;28;20273;-82
2022/12/07 11:49:04;;;;;;;4.28;3.88;;;4.90;99.90;;;;;;4991237;28;20234;-87
2022/12/07 11:51:35;;;;;;;3.92;3.55;;;4.90;99.90;;;;;;4982167;28;20211;-86
2022/12/07 11:54:12;;;;;;;3.90;3.55;;;4.90;99.90;;;;;;4995338;28;20252;-84
2022/12/07 11:56:39;;;;;;;4.63;3.90;;;5.30;99.90;;;;;;4980826;28;20217;-86
2022/12/07 11:59:21;;;;;;;4.28;3.88;;;5.00;99.90;;;;;;4976020;28;20392;-83
2022/12/07 12:01:52;;;;;;;4.35;3.95;;;5.10;99.90;;;;;;4991401;28;20187;-88
2022/12/07 12:04:44;;;;;;;4.90;4.43;;;5.20;99.90;;;;;;4994142;28;20230;-85
2022/12/07 12:07:22;;;;;;;4.10;3.70;;;5.00;99.90;;;;;;4996554;28;20199;-88
2022/12/07 12:10:38;;;;;;;3.55;3.00;;;4.90;99.90;;;;;;4983216;28;20211;-84
2022/12/07 12:13:19;;;;;;;5.38;4.90;;;4.80;99.90;;;;;;4981061;28;20523;-87
2022/12/07 12:16:31;;;;;;;8.32;4.70;;;4.70;99.90;;;;;;4979569;28;20210;-85
2022/12/07 12:19:26;;;;;;;7.68;6.10;;;4.60;99.90;;;;;;4976282;28;20210;-83
2022/12/07 12:22:07;;;;;;;4.57;4.18;;;4.70;99.90;;;;;;4981462;28;20348;-84
2022/12/07 12:24:36;;;;;;;5.00;4.55;;;4.80;99.90;;;;;;4973911;28;20234;-84
2022/12/07 12:27:10;;;;;;;4.07;3.78;;;4.90;99.90;;;;;;4974209;28;20225;-85
2022/12/07 12:29:42;;;;;;;6.45;4.45;;;5.90;99.90;;;;;;4982891;28;20450;-84
2022/12/07 12:32:15;;;;;;;6.82;4.07;;;5.60;99.90;;;;;;4985590;28;20211;-86
2022/12/07 12:35:20;;;;;;;6.60;4.75;;;6.20;99.90;;;;;;4982495;28;20211;-85
2022/12/07 12:37:48;;;;;;;7.32;4.00;;;5.10;99.90;;;;;;4987789;28;20307;-84
2022/12/07 12:40:16;;;;;;;6.60;4.70;;;5.10;99.90;;;;;;4985581;28;20206;-85
2022/12/07 12:42:50;;;;;;;6.25;4.57;;;5.00;99.90;;;;;;4988088;28;20398;-89
2022/12/07 12:45:30;;;;;;;5.95;4.00;;;5.00;99.90;;;;;;4987283;28;20226;-85
2022/12/07 12:47:58;;;;;;;5.40;4.57;;;4.90;99.90;;;;;;4976472;28;20269;-85
2022/12/07 12:50:33;;;;;;;5.15;3.95;;;4.90;99.90;;;;;;5001012;28;20202;-86
2022/12/07 12:53:21;;;;;;;4.72;4.22;;;4.90;99.90;;;;;;4976961;28;20603;-86
2022/12/07 12:56:26;;;;;;;5.70;4.05;;;4.90;99.90;;;;;;4991554;28;20277;-85
2022/12/07 12:59:24;;;;;;;7.10;3.47;;;4.90;99.90;;;;;;4978495;28;20240;-89
2022/12/07 13:02:36;;;;;;;3.60;3.30;;;5.00;99.90;;;;;;4975572;28;20207;-84
2022/12/07 13:05:07;;;;;;;4.03;3.63;;;5.00;99.90;;;;;;4985904;28;20222;-86
2022/12/07 13:07:47;;;;;;;6.93;5.32;;;5.20;99.90;;;;;;4991604;28;20402;-82
2022/12/07 13:10:23;;;;;;;4.60;3.40;;;5.10;99.90;;;;;;4993278;28;20533;-83
2022/12/07 13:13:19;;;;;;;4.90;4.40;;;5.10;99.90;;;;;;4987274;28;20203;-83
2022/12/07 13:15:50;;;;;;;5.95;4.68;;;5.10;99.90;;;;;;4967404;28;20227;-82
2022/12/07 13:18:34;;;;;;;4.88;4.18;;;5.00;99.90;;;;;;4980299;28;20222;-85
2022/12/07 13:21:07;;;;;;;7.35;4.45;;;5.00;99.90;;;;;;4989436;28;20210;-86
2022/12/07 13:23:50;;;;;;;4.00;3.60;;;4.90;99.90;;;;;;4998918;28;20521;-86
2022/12/07 13:26:36;;;;;;;3.72;3.33;;;4.90;99.90;;;;;;4984569;28;20238;-87
2022/12/07 13:29:23;;;;;;;6.93;4.32;;;4.90;99.90;;;;;;4968148;28;20211;-84
2022/12/07 13:31:56;;;;;;;4.07;3.67;;;4.90;99.90;;;;;;4990769;28;20484;-87
2022/12/07 13:34:37;;;;;;;12.35;5.63;;;5.00;99.90;;;;;;4995438;28;20254;-89